createdAt,value
2023-10-27T00:00:03.393Z,11.70
2023-10-27T00:02:39.626Z,10.70
2023-10-27T00:05:11.941Z,7.20
2023-10-27T00:07:44.046Z,14.30
2023-10-27T00:10:16.274Z,14.40
2023-10-27T00:12:48.382Z,10.00
2023-10-27T00:15:20.950Z,14.00
2023-10-27T00:17:53.151Z,13.60
2023-10-27T00:20:25.376Z,10.40
2023-10-27T00:22:57.571Z,13.60
2023-10-27T00:25:29.740Z,13.20
2023-10-27T00:28:01.945Z,10.30
2023-10-27T00:30:34.402Z,10.90
2023-10-27T00:33:06.677Z,13.30
2023-10-27T00:35:39.303Z,6.50
2023-10-27T00:38:11.484Z,11.90
2023-10-27T00:40:43.615Z,7.30
2023-10-27T00:43:18.796Z,10.90
2023-10-27T00:45:52.872Z,6.40
2023-10-27T00:48:25.047Z,9.50
2023-10-27T00:50:57.202Z,16.70
2023-10-27T00:53:30.442Z,14.90
2023-10-27T00:56:02.530Z,16.30
2023-10-27T00:58:35.059Z,19.10
2023-10-27T01:01:08.610Z,11.60
2023-10-27T01:03:41.334Z,11.50
2023-10-27T01:06:13.514Z,16.90
2023-10-27T01:08:45.893Z,11.10
2023-10-27T01:11:18.284Z,14.90
2023-10-27T01:13:53.955Z,11.30
2023-10-27T01:16:26.437Z,9.70
2023-10-27T01:18:59.104Z,10.50
2023-10-27T01:21:31.523Z,11.30
2023-10-27T01:24:04.114Z,12.70
2023-10-27T01:26:36.209Z,4.90
2023-10-27T01:29:08.595Z,9.20
2023-10-27T01:31:40.797Z,11.30
2023-10-27T01:34:13.434Z,15.80
2023-10-27T01:36:45.637Z,14.40
2023-10-27T01:39:18.552Z,19.30
2023-10-27T01:41:50.661Z,14.00
2023-10-27T01:44:22.803Z,12.50
2023-10-27T01:46:55.251Z,15.90
2023-10-27T01:49:28.161Z,21.60
2023-10-27T01:54:32.963Z,10.70
2023-10-27T01:57:05.382Z,9.70
2023-10-27T01:59:37.589Z,11.50
2023-10-27T02:02:09.688Z,10.90
2023-10-27T02:04:41.872Z,18.20
2023-10-27T02:07:16.430Z,14.80
2023-10-27T02:09:48.614Z,14.50
2023-10-27T02:12:20.848Z,16.40
2023-10-27T02:14:52.923Z,14.80
2023-10-27T02:17:25.045Z,10.30
2023-10-27T02:19:57.264Z,9.20
2023-10-27T02:22:29.601Z,8.80
2023-10-27T02:25:02.149Z,10.10
2023-10-27T02:27:39.558Z,11.10
2023-10-27T02:30:13.034Z,11.40
2023-10-27T02:32:45.131Z,16.30
2023-10-27T02:35:17.374Z,15.30
2023-10-27T02:37:49.499Z,8.50
2023-10-27T02:40:21.725Z,9.80
2023-10-27T02:42:53.877Z,17.00
2023-10-27T02:45:25.946Z,7.50
2023-10-27T02:47:58.256Z,17.00
2023-10-27T02:50:32.061Z,7.30
2023-10-27T02:53:04.102Z,10.10
2023-10-27T02:55:38.227Z,9.40
2023-10-27T02:58:10.545Z,13.30
2023-10-27T03:00:45.221Z,9.40
2023-10-27T03:03:17.381Z,6.40
2023-10-27T03:05:49.665Z,11.40
2023-10-27T03:08:21.910Z,13.10
2023-10-27T03:10:53.889Z,13.10
2023-10-27T03:13:26.356Z,11.00
2023-10-27T03:15:59.166Z,13.60
2023-10-27T03:18:31.805Z,6.80
2023-10-27T03:21:06.807Z,10.20
2023-10-27T03:23:39.043Z,11.20
2023-10-27T03:26:11.392Z,11.00
2023-10-27T03:28:44.693Z,11.10
2023-10-27T03:31:16.750Z,6.70
2023-10-27T03:33:48.889Z,13.90
2023-10-27T03:36:22.525Z,10.60
2023-10-27T03:38:57.266Z,18.40
2023-10-27T03:41:29.345Z,9.20
2023-10-27T03:44:01.517Z,13.90
2023-10-27T03:46:33.710Z,9.00
2023-10-27T03:49:06.028Z,10.40
2023-10-27T03:51:38.074Z,11.00
2023-10-27T03:54:10.415Z,16.60
2023-10-27T03:56:42.408Z,10.30
2023-10-27T03:59:14.481Z,8.60
2023-10-27T04:01:46.473Z,8.90
2023-10-27T04:04:21.702Z,15.00
2023-10-27T04:06:55.316Z,16.10
2023-10-27T04:09:28.004Z,20.00
2023-10-27T04:12:00.098Z,15.00
2023-10-27T04:14:32.302Z,9.40
2023-10-27T04:17:04.320Z,11.50
2023-10-27T04:19:36.915Z,15.80
2023-10-27T04:22:09.504Z,15.70
2023-10-27T04:24:41.673Z,9.70
2023-10-27T04:27:13.833Z,14.20
2023-10-27T04:29:45.985Z,19.60
2023-10-27T04:32:20.044Z,17.00
2023-10-27T04:34:52.539Z,13.30
2023-10-27T04:37:24.661Z,11.30
2023-10-27T04:39:56.704Z,11.30
2023-10-27T04:42:28.946Z,12.80
2023-10-27T04:45:01.306Z,15.90
2023-10-27T04:47:33.509Z,17.10
2023-10-27T04:50:07.181Z,20.50
2023-10-27T04:52:39.240Z,15.00
2023-10-27T04:55:13.698Z,14.70
2023-10-27T04:57:46.117Z,17.40
2023-10-27T05:00:18.920Z,17.20
2023-10-27T05:02:51.817Z,11.20
2023-10-27T05:05:24.085Z,16.10
2023-10-27T05:07:57.235Z,15.30
2023-10-27T05:10:29.688Z,18.80
2023-10-27T05:13:01.855Z,13.70
2023-10-27T05:15:34.095Z,11.20
2023-10-27T05:18:06.786Z,18.80
2023-10-27T05:20:41.939Z,13.90
2023-10-27T05:23:14.252Z,15.80
2023-10-27T05:25:47.156Z,17.50
2023-10-27T05:28:19.247Z,14.10
2023-10-27T05:30:53.018Z,19.00
2023-10-27T05:33:25.729Z,21.20
2023-10-27T05:35:57.762Z,13.50
2023-10-27T05:38:29.757Z,18.20
2023-10-27T05:41:02.112Z,27.70
2023-10-27T05:43:34.527Z,17.20
2023-10-27T05:46:07.047Z,22.10
2023-10-27T05:48:40.119Z,15.80
2023-10-27T05:51:12.519Z,14.20
2023-10-27T05:53:44.514Z,24.40
2023-10-27T05:56:16.534Z,19.40
2023-10-27T05:58:48.983Z,14.80
2023-10-27T06:01:21.301Z,19.90
2023-10-27T06:03:55.240Z,23.20
2023-10-27T06:06:28.474Z,20.70
2023-10-27T06:09:00.717Z,21.70
2023-10-27T06:11:32.851Z,15.40
2023-10-27T06:14:04.978Z,19.60
2023-10-27T06:16:37.978Z,13.10
2023-10-27T06:19:10.609Z,16.70
2023-10-27T06:21:42.941Z,25.30
2023-10-27T06:24:15.250Z,17.30
2023-10-27T06:26:48.135Z,19.20
2023-10-27T06:29:21.119Z,20.60
2023-10-27T06:31:53.390Z,17.70
2023-10-27T06:34:25.594Z,14.60
2023-10-27T06:37:00.810Z,21.70
2023-10-27T06:39:33.913Z,26.30
2023-10-27T06:42:07.707Z,25.50
2023-10-27T06:44:39.721Z,23.20
2023-10-27T06:47:13.653Z,16.40
2023-10-27T06:49:46.086Z,17.60
2023-10-27T06:52:18.679Z,15.30
2023-10-27T06:54:51.164Z,26.70
2023-10-27T06:57:23.414Z,25.50
2023-10-27T06:59:57.296Z,28.50
2023-10-27T07:02:38.824Z,28.30
2023-10-27T07:05:18.424Z,25.60
2023-10-27T07:07:50.644Z,23.70
2023-10-27T07:10:24.397Z,16.80
2023-10-27T07:12:56.744Z,22.50
2023-10-27T07:15:29.013Z,23.30
2023-10-27T07:18:01.113Z,27.00
2023-10-27T07:20:33.530Z,19.80
2023-10-27T07:23:05.931Z,20.70
2023-10-27T07:25:38.077Z,29.80
2023-10-27T07:28:10.598Z,28.70
2023-10-27T07:30:42.897Z,26.00
2023-10-27T07:33:15.231Z,21.50
2023-10-27T07:35:49.088Z,16.90
2023-10-27T07:38:21.460Z,21.00
2023-10-27T07:40:53.735Z,19.70
2023-10-27T07:43:26.117Z,21.20
2023-10-27T07:45:58.232Z,25.60
2023-10-27T07:48:30.420Z,24.60
2023-10-27T07:51:04.402Z,24.40
2023-10-27T07:53:36.679Z,23.10
2023-10-27T07:56:10.015Z,26.90
2023-10-27T07:58:42.435Z,18.90
2023-10-27T08:08:14.383Z,19.10
2023-10-27T08:10:48.364Z,22.60
2023-10-27T08:13:22.262Z,29.30
2023-10-27T08:15:54.776Z,32.80
2023-10-27T08:18:27.222Z,24.10
2023-10-27T08:20:59.939Z,28.50
2023-10-27T08:23:33.612Z,24.40
2023-10-27T08:26:06.109Z,23.90
2023-10-27T08:28:38.382Z,28.80
2023-10-27T08:31:13.200Z,29.80
2023-10-27T08:33:47.389Z,28.60
2023-10-27T08:36:22.454Z,28.60
2023-10-27T08:38:57.665Z,25.80
2023-10-27T08:41:29.756Z,26.20
2023-10-27T08:44:14.601Z,19.50
2023-10-27T08:46:55.408Z,26.20
2023-10-27T08:49:27.554Z,34.60
2023-10-27T08:52:01.023Z,39.10
2023-10-27T08:54:33.426Z,21.80
2023-10-27T08:57:05.956Z,24.30
2023-10-27T08:59:38.182Z,23.90
2023-10-27T09:02:10.418Z,36.30
2023-10-27T09:04:47.060Z,25.20
2023-10-27T09:07:19.290Z,33.50
2023-10-27T09:09:51.570Z,26.40
2023-10-27T09:12:27.702Z,26.30
2023-10-27T09:15:05.708Z,30.20
2023-10-27T09:17:55.418Z,22.70
2023-10-27T09:20:28.466Z,32.40
2023-10-27T09:23:01.787Z,19.40
2023-10-27T09:25:35.807Z,21.80
2023-10-27T09:28:08.968Z,24.10
2023-10-27T09:30:42.128Z,21.00
2023-10-27T09:33:20.602Z,12.30
2023-10-27T09:35:53.799Z,17.70
2023-10-27T09:38:26.681Z,24.50
2023-10-27T09:40:59.883Z,16.00
2023-10-27T09:43:33.961Z,17.50
2023-10-27T09:46:06.748Z,18.00
2023-10-27T09:48:39.773Z,21.20
2023-10-27T09:51:17.697Z,21.90
2023-10-27T09:53:50.859Z,18.40
2023-10-27T09:56:23.351Z,17.90
2023-10-27T09:58:55.628Z,25.50
2023-10-27T10:01:27.835Z,18.20
2023-10-27T10:03:59.789Z,19.40
2023-10-27T10:06:46.303Z,23.20
2023-10-27T10:09:22.094Z,27.00
2023-10-27T10:12:01.041Z,18.40
2023-10-27T10:14:50.072Z,17.60
2023-10-27T10:17:39.355Z,21.60
2023-10-27T10:20:12.336Z,20.10
2023-10-27T10:22:59.499Z,14.00
2023-10-27T10:25:33.235Z,26.50
2023-10-27T10:28:25.303Z,21.20
2023-10-27T10:31:27.026Z,19.40
2023-10-27T10:34:14.264Z,22.20
2023-10-27T10:36:47.340Z,23.70
2023-10-27T10:39:19.444Z,21.10
2023-10-27T10:42:07.201Z,17.10
2023-10-27T10:44:39.652Z,21.50
2023-10-27T10:47:27.147Z,20.40
2023-10-27T10:49:59.779Z,20.70
2023-10-27T10:52:32.380Z,18.60
2023-10-27T10:55:05.758Z,19.60
2023-10-27T10:57:37.994Z,18.40
2023-10-27T11:00:14.987Z,28.00
2023-10-27T11:02:47.338Z,16.30
2023-10-27T11:05:40.934Z,23.60
2023-10-27T11:08:13.229Z,20.30
2023-10-27T11:10:45.542Z,17.20
2023-10-27T11:13:17.876Z,19.30
2023-10-27T11:15:51.940Z,16.40
2023-10-27T11:18:24.526Z,18.20
2023-10-27T11:20:56.987Z,16.60
2023-10-27T11:23:30.560Z,21.90
2023-10-27T11:26:07.080Z,18.00
2023-10-27T11:28:43.406Z,11.70
2023-10-27T11:31:20.826Z,21.00
2023-10-27T11:34:04.388Z,19.80
2023-10-27T11:36:37.625Z,13.60
2023-10-27T11:39:17.664Z,19.90
2023-10-27T11:41:51.394Z,18.90
2023-10-27T11:44:24.424Z,9.90
2023-10-27T11:46:57.845Z,16.10
2023-10-27T11:49:31.931Z,22.40
2023-10-27T11:52:04.456Z,15.00
2023-10-27T11:54:36.842Z,16.50
2023-10-27T11:57:09.130Z,16.50
2023-10-27T11:59:41.851Z,10.00
2023-10-27T12:02:15.136Z,12.70
2023-10-27T12:04:47.619Z,13.50
2023-10-27T12:07:20.157Z,18.10
2023-10-27T12:09:52.293Z,21.70
2023-10-27T12:12:24.744Z,16.60
2023-10-27T12:14:57.061Z,9.10
2023-10-27T12:17:29.164Z,11.10
2023-10-27T12:20:08.051Z,12.70
2023-10-27T12:22:43.127Z,16.90
2023-10-27T12:25:15.608Z,14.00
2023-10-27T12:59:54.928Z,4.40
2023-10-27T13:02:28.464Z,9.10
2023-10-27T13:05:04.347Z,4.30
2023-10-27T13:07:37.507Z,9.20
2023-10-27T13:10:11.538Z,7.30
2023-10-27T13:12:43.677Z,5.60
2023-10-27T13:15:16.195Z,6.90
2023-10-27T13:17:49.303Z,6.90
2023-10-27T13:20:22.745Z,5.90
2023-10-27T13:22:55.811Z,6.10
2023-10-27T13:25:28.206Z,8.50
2023-10-27T13:28:01.466Z,7.00
2023-10-27T13:30:33.929Z,9.90
2023-10-27T13:33:06.134Z,9.30
2023-10-27T13:35:38.590Z,6.00
2023-10-27T13:38:11.531Z,10.00
2023-10-27T13:40:43.759Z,8.20
2023-10-27T13:43:18.307Z,9.00
2023-10-27T13:48:21.683Z,10.30
2023-10-27T13:50:54.078Z,14.10
2023-10-27T13:53:27.331Z,12.00
2023-10-27T13:55:59.752Z,11.10
2023-10-27T13:58:33.530Z,7.60
2023-10-27T14:01:05.931Z,10.80
2023-10-27T14:03:38.417Z,16.80
2023-10-27T14:06:14.282Z,11.70
2023-10-27T14:08:47.345Z,9.40
2023-10-27T14:11:19.949Z,8.00
2023-10-27T14:13:52.554Z,11.10
2023-10-27T14:16:24.965Z,17.40
2023-10-27T14:18:58.113Z,15.90
2023-10-27T14:21:31.108Z,18.70
2023-10-27T14:24:03.739Z,16.20
2023-10-27T14:26:36.788Z,17.80
2023-10-27T14:29:09.231Z,25.10
2023-10-27T14:31:42.007Z,15.60
2023-10-27T14:34:14.733Z,17.20
2023-10-27T14:36:47.242Z,20.00
2023-10-27T14:39:19.450Z,28.30
2023-10-27T14:41:52.341Z,23.30
2023-10-27T14:44:24.476Z,16.20
2023-10-27T14:50:38.065Z,11.80
2023-10-27T14:53:10.545Z,23.60
2023-10-27T14:55:42.726Z,16.00
2023-10-27T14:58:15.110Z,25.10
2023-10-27T15:00:47.360Z,19.90
2023-10-27T15:03:19.846Z,21.50
2023-10-27T15:05:52.822Z,18.60
2023-10-27T15:08:25.370Z,17.40
2023-10-27T15:11:00.877Z,16.70
2023-10-27T15:13:34.131Z,33.80
2023-10-27T15:16:08.185Z,20.90
2023-10-27T15:18:41.637Z,16.50
2023-10-27T15:21:14.504Z,29.80
2023-10-27T15:23:49.913Z,26.30
2023-10-27T15:26:23.206Z,26.10
2023-10-27T15:28:57.353Z,29.00
2023-10-27T15:31:31.680Z,25.10
2023-10-27T15:34:04.548Z,16.30
2023-10-27T15:36:37.357Z,24.90
2023-10-27T15:39:12.456Z,17.20
2023-10-27T15:41:45.301Z,14.60
2023-10-27T15:44:17.954Z,21.50
2023-10-27T15:46:50.420Z,21.30
2023-10-27T15:49:23.025Z,26.10
2023-10-27T15:51:55.331Z,17.20
2023-10-27T15:54:27.717Z,17.20
2023-10-27T15:57:00.538Z,25.90
2023-10-27T15:59:37.746Z,14.10
2023-10-27T16:02:10.487Z,20.40
2023-10-27T16:04:42.907Z,18.00
2023-10-27T16:07:15.088Z,19.70
2023-10-27T16:09:47.478Z,19.90
2023-10-27T16:12:19.844Z,20.60
2023-10-27T16:14:52.542Z,24.70
2023-10-27T16:17:24.915Z,17.70
2023-10-27T16:19:57.282Z,23.70
2023-10-27T16:22:30.671Z,28.40
2023-10-27T16:25:03.235Z,21.30
2023-10-27T16:27:38.831Z,19.30
2023-10-27T16:30:12.700Z,24.50
2023-10-27T16:32:45.008Z,26.20
2023-10-27T16:35:17.549Z,17.80
2023-10-27T16:37:49.801Z,20.80
2023-10-27T16:40:22.521Z,18.30
2023-10-27T16:42:54.720Z,14.30
2023-10-27T16:45:27.428Z,25.20
2023-10-27T16:47:59.866Z,20.20
2023-10-27T16:50:32.270Z,17.60
2023-10-27T16:53:04.937Z,27.10
2023-10-27T16:55:37.544Z,22.60
2023-10-27T16:58:09.727Z,26.10
2023-10-27T17:00:41.902Z,27.80
2023-10-27T17:03:14.289Z,32.50
2023-10-27T17:05:48.087Z,24.20
2023-10-27T17:08:20.677Z,20.30
2023-10-27T17:10:56.903Z,20.70
2023-10-27T17:13:30.209Z,41.00
2023-10-27T17:16:06.630Z,29.80
2023-10-27T17:18:41.482Z,19.00
2023-10-27T17:21:15.396Z,25.20
2023-10-27T17:23:51.307Z,28.00
2023-10-27T17:26:23.779Z,36.20
2023-10-27T17:28:56.102Z,30.30
2023-10-27T17:31:28.981Z,29.50
2023-10-27T17:34:01.746Z,28.90
2023-10-27T17:36:38.662Z,32.20
2023-10-27T17:39:13.829Z,24.10
2023-10-27T17:41:47.711Z,16.00
2023-10-27T17:44:20.319Z,27.70
2023-10-27T17:46:52.836Z,28.30
2023-10-27T17:49:25.893Z,32.40
2023-10-27T17:51:58.298Z,21.30
2023-10-27T17:54:34.630Z,25.50
2023-10-27T17:57:07.539Z,17.10
2023-10-27T17:59:39.892Z,27.70
2023-10-27T18:02:11.891Z,23.90
2023-10-27T18:04:45.105Z,17.10
2023-10-27T18:07:19.291Z,18.70
2023-10-27T18:09:53.250Z,25.10
2023-10-27T18:12:26.997Z,34.40
2023-10-27T18:15:00.368Z,23.30
2023-10-27T18:17:33.543Z,23.80
2023-10-27T18:20:08.023Z,19.20
2023-10-27T18:22:40.512Z,22.70
2023-10-27T18:25:12.880Z,23.40
2023-10-27T18:27:45.294Z,16.80
2023-10-27T18:30:18.955Z,27.20
2023-10-27T18:32:51.537Z,21.40
2023-10-27T18:35:24.121Z,18.80
2023-10-27T18:37:56.452Z,25.20
2023-10-27T18:40:31.037Z,17.20
2023-10-27T18:43:05.400Z,22.70
2023-10-27T18:45:38.576Z,25.00
2023-10-27T18:48:11.042Z,25.10
2023-10-27T18:50:43.492Z,13.10
2023-10-27T18:53:15.880Z,20.30
2023-10-27T18:55:48.357Z,24.50
2023-10-27T18:58:20.538Z,31.30
2023-10-27T19:00:52.732Z,21.70
2023-10-27T19:03:30.837Z,21.30
2023-10-27T19:06:04.119Z,22.10
2023-10-27T19:08:36.944Z,25.00
2023-10-27T19:11:11.689Z,27.30
2023-10-27T19:16:16.290Z,14.40
2023-10-27T19:22:08.753Z,27.20
2023-10-27T19:24:40.998Z,18.30
2023-10-27T19:27:13.714Z,19.00
2023-10-27T19:29:46.209Z,23.60
2023-10-27T19:32:18.450Z,24.50
2023-10-27T19:34:50.673Z,27.40
2023-10-27T19:37:23.131Z,25.70
2023-10-27T19:39:57.522Z,35.00
2023-10-27T19:42:30.079Z,27.20
2023-10-27T19:45:04.270Z,24.30
2023-10-27T19:47:36.569Z,26.80
2023-10-27T19:50:11.019Z,31.20
2023-10-27T19:52:43.659Z,29.60
2023-10-27T19:55:17.807Z,22.80
2023-10-27T19:57:51.363Z,31.30
2023-10-27T20:00:24.688Z,28.00
2023-10-27T20:02:57.009Z,24.70
2023-10-27T20:05:32.603Z,26.00
2023-10-27T20:08:05.233Z,34.60
2023-10-27T20:10:41.661Z,26.90
2023-10-27T20:13:14.161Z,33.10
2023-10-27T20:15:46.762Z,29.00
2023-10-27T20:18:19.319Z,22.70
2023-10-27T20:20:52.594Z,45.30
2023-10-27T20:23:24.801Z,28.50
2023-10-27T20:25:57.420Z,39.40
2023-10-27T20:28:31.838Z,35.10
2023-10-27T20:31:06.148Z,18.10
2023-10-27T20:33:38.932Z,30.00
2023-10-27T20:36:13.158Z,24.10
2023-10-27T20:38:45.290Z,38.00
2023-10-27T20:41:17.868Z,33.50
2023-10-27T20:43:50.009Z,34.80
2023-10-27T20:46:22.391Z,32.70
2023-10-27T20:48:55.281Z,30.00
2023-10-27T20:51:27.720Z,36.40
2023-10-27T20:54:00.220Z,15.00
2023-10-27T20:56:34.804Z,34.40
2023-10-27T20:59:07.958Z,23.30
2023-10-27T21:01:40.172Z,35.30
2023-10-27T21:04:12.133Z,26.40
2023-10-27T21:06:44.716Z,34.80
2023-10-27T21:09:17.133Z,34.00
2023-10-27T21:11:49.431Z,33.00
2023-10-27T21:14:21.564Z,22.40
2023-10-27T21:16:54.069Z,36.60
2023-10-27T21:19:26.990Z,27.30
2023-10-27T21:21:59.894Z,33.20
2023-10-27T21:24:33.219Z,28.30
2023-10-27T21:27:06.010Z,28.80
2023-10-27T21:29:38.259Z,28.00
2023-10-27T21:32:12.062Z,22.30
2023-10-27T21:38:15.357Z,26.80
2023-10-27T21:40:48.967Z,23.40
2023-10-27T21:43:21.490Z,21.00
2023-10-27T21:45:53.945Z,33.90
2023-10-27T21:48:26.301Z,32.60
2023-10-27T21:51:06.403Z,23.90
2023-10-27T21:53:38.551Z,32.30
2023-10-27T21:56:12.134Z,32.90
2023-10-27T21:58:44.534Z,24.50
2023-10-27T22:01:17.822Z,35.80
2023-10-27T22:03:56.048Z,25.60
2023-10-27T22:06:31.817Z,15.40
2023-10-27T22:09:05.767Z,25.40
2023-10-27T22:11:38.347Z,38.20
2023-10-27T22:14:10.428Z,33.50
2023-10-27T22:16:42.924Z,30.10
2023-10-27T22:19:16.531Z,38.20
2023-10-27T22:21:49.132Z,25.70
2023-10-27T22:24:22.067Z,40.80
2023-10-27T22:26:54.216Z,27.40
2023-10-27T22:29:26.364Z,38.20
2023-10-27T22:31:58.905Z,24.20
2023-10-27T22:34:31.808Z,25.40
2023-10-27T22:37:04.181Z,35.90
2023-10-27T22:39:36.496Z,31.20
2023-10-27T22:42:08.894Z,28.90
2023-10-27T22:44:41.581Z,28.40
2023-10-27T22:47:14.155Z,22.90
2023-10-27T22:49:46.748Z,27.00
2023-10-27T22:52:19.576Z,28.30
2023-10-27T22:54:54.059Z,26.40
2023-10-27T22:57:26.798Z,22.60
2023-10-27T22:59:59.684Z,33.30
2023-10-27T23:02:34.397Z,27.50
2023-10-27T23:05:07.546Z,24.20
2023-10-27T23:07:40.956Z,27.40
2023-10-27T23:10:13.631Z,33.80
2023-10-27T23:12:46.472Z,24.30
2023-10-27T23:15:20.014Z,21.10
2023-10-27T23:17:52.390Z,34.40
2023-10-27T23:20:24.893Z,36.10
2023-10-27T23:23:00.201Z,22.60
2023-10-27T23:25:34.351Z,25.30
2023-10-27T23:28:07.796Z,23.20
2023-10-27T23:30:40.211Z,28.70
2023-10-27T23:33:12.722Z,25.30
2023-10-27T23:35:55.296Z,30.00
2023-10-27T23:38:27.807Z,33.80
2023-10-27T23:41:00.905Z,32.90
2023-10-27T23:43:33.326Z,27.90
2023-10-27T23:46:06.591Z,36.80
2023-10-27T23:48:39.455Z,34.90
2023-10-27T23:51:11.541Z,22.90
2023-10-27T23:53:43.868Z,26.30
2023-10-27T23:56:16.195Z,27.20
2023-10-27T23:58:49.051Z,29.80
